createdAt,value
2019-06-08T00:00:23.005Z,21.50
2019-06-08T00:02:51.761Z,21.40
2019-06-08T00:05:21.059Z,21.40
2019-06-08T00:07:49.919Z,21.40
2019-06-08T00:10:22.323Z,21.40
2019-06-08T00:12:48.967Z,21.30
2019-06-08T00:15:18.649Z,21.30
2019-06-08T00:17:47.560Z,21.20
2019-06-08T00:20:18.096Z,21.20
2019-06-08T00:22:46.813Z,21.10
2019-06-08T00:25:15.778Z,21.10
2019-06-08T00:27:44.562Z,21.00
2019-06-08T00:30:13.460Z,21.00
2019-06-08T00:32:42.137Z,21.00
2019-06-08T00:35:10.890Z,20.90
2019-06-08T00:37:39.552Z,21.00
2019-06-08T00:40:08.632Z,20.90
2019-06-08T00:42:37.359Z,21.00
2019-06-08T00:45:07.335Z,20.90
2019-06-08T00:47:47.350Z,20.90
2019-06-08T00:50:06.665Z,20.90
2019-06-08T00:52:35.335Z,20.90
2019-06-08T00:55:06.254Z,20.90
2019-06-08T00:57:34.926Z,20.80
2019-06-08T01:00:10.813Z,20.80
2019-06-08T01:02:36.299Z,20.80
2019-06-08T01:05:08.055Z,20.80
2019-06-08T01:07:36.881Z,20.80
2019-06-08T01:10:07.266Z,20.80
2019-06-08T01:12:35.940Z,20.80
2019-06-08T01:15:08.463Z,20.70
2019-06-08T01:17:37.315Z,20.70
2019-06-08T01:20:07.596Z,20.70
2019-06-08T01:22:36.268Z,20.70
2019-06-08T01:25:05.656Z,20.70
2019-06-08T01:27:34.399Z,20.70
2019-06-08T01:30:04.066Z,20.60
2019-06-08T01:32:32.729Z,20.60
2019-06-08T01:35:01.449Z,20.60
2019-06-08T01:37:31.245Z,20.60
2019-06-08T01:40:00.073Z,20.60
2019-06-08T01:42:29.745Z,20.50
2019-06-08T01:44:58.517Z,20.50
2019-06-08T01:47:28.270Z,20.40
2019-06-08T01:49:57.092Z,20.40
2019-06-08T01:52:26.584Z,20.40
2019-06-08T01:54:55.426Z,20.30
2019-06-08T01:57:25.247Z,20.30
2019-06-08T01:59:54.032Z,20.30
2019-06-08T02:02:23.813Z,20.30
2019-06-08T02:04:52.569Z,20.30
2019-06-08T02:07:21.268Z,20.20
2019-06-08T02:09:49.944Z,20.20
2019-06-08T02:12:18.673Z,20.10
2019-06-08T02:14:47.342Z,20.10
2019-06-08T02:17:16.066Z,20.00
2019-06-08T02:19:44.720Z,20.00
2019-06-08T02:22:13.385Z,20.00
2019-06-08T02:24:42.117Z,20.00
2019-06-08T02:27:10.790Z,19.90
2019-06-08T02:29:39.948Z,19.90
2019-06-08T02:32:08.804Z,19.90
2019-06-08T02:34:38.235Z,19.90
2019-06-08T02:37:07.179Z,19.90
2019-06-08T02:39:37.830Z,19.80
2019-06-08T02:42:06.359Z,19.80
2019-06-08T02:44:36.394Z,19.80
2019-06-08T02:47:05.215Z,19.80
2019-06-08T02:49:35.414Z,19.70
2019-06-08T02:52:04.293Z,19.80
2019-06-08T02:54:34.722Z,19.80
2019-06-08T02:57:04.448Z,19.70
2019-06-08T02:59:35.639Z,19.80
2019-06-08T03:02:04.451Z,19.70
2019-06-08T03:04:38.718Z,19.80
2019-06-08T03:07:08.878Z,19.80
2019-06-08T03:09:38.659Z,19.70
2019-06-08T03:12:07.513Z,19.70
2019-06-08T03:14:37.502Z,19.70
2019-06-08T03:17:06.737Z,19.70
2019-06-08T03:19:35.728Z,19.70
2019-06-08T03:22:04.803Z,19.70
2019-06-08T03:24:34.443Z,19.70
2019-06-08T03:27:03.824Z,19.70
2019-06-08T03:29:32.582Z,19.70
2019-06-08T03:32:01.257Z,19.80
2019-06-08T03:34:29.925Z,19.80
2019-06-08T03:36:58.633Z,19.80
2019-06-08T03:39:27.318Z,19.80
2019-06-08T03:41:56.052Z,19.80
2019-06-08T03:44:24.717Z,19.80
2019-06-08T03:46:53.397Z,19.90
2019-06-08T03:49:40.476Z,19.90
2019-06-08T03:51:52.464Z,19.90
2019-06-08T03:54:21.133Z,19.90
2019-06-08T03:56:49.854Z,19.90
2019-06-08T03:59:18.514Z,19.90
2019-06-08T04:01:47.247Z,19.90
2019-06-08T04:04:15.913Z,19.90
2019-06-08T04:06:45.699Z,19.90
2019-06-08T04:09:14.700Z,19.90
2019-06-08T04:11:44.986Z,20.00
2019-06-08T04:14:13.761Z,20.00
2019-06-08T04:16:44.109Z,20.10
2019-06-08T04:19:12.791Z,20.00
2019-06-08T04:21:41.830Z,20.20
2019-06-08T04:24:10.579Z,20.30
2019-06-08T04:26:40.581Z,20.40
2019-06-08T04:29:09.793Z,20.40
2019-06-08T04:31:39.642Z,20.50
2019-06-08T04:34:08.517Z,20.40
2019-06-08T04:36:38.826Z,20.40
2019-06-08T04:39:08.377Z,20.30
2019-06-08T04:41:38.523Z,20.30
2019-06-08T04:44:07.426Z,20.20
2019-06-08T04:46:36.161Z,20.10
2019-06-08T04:49:04.836Z,19.90
2019-06-08T04:51:33.521Z,20.00
2019-06-08T04:54:02.221Z,19.80
2019-06-08T04:56:30.909Z,19.80
2019-06-08T04:58:59.646Z,19.70
2019-06-08T05:01:28.317Z,19.50
2019-06-08T05:03:56.988Z,19.50
2019-06-08T05:06:25.754Z,19.50
2019-06-08T05:08:54.430Z,19.40
2019-06-08T05:11:23.104Z,19.40
2019-06-08T05:13:51.805Z,19.50
2019-06-08T05:16:20.481Z,19.50
2019-06-08T05:18:49.637Z,19.40
2019-06-08T05:21:18.585Z,19.40
2019-06-08T05:23:49.378Z,19.40
2019-06-08T05:26:17.617Z,19.40
2019-06-08T05:28:47.303Z,19.40
2019-06-08T05:31:16.130Z,19.30
2019-06-08T05:33:45.492Z,19.40
2019-06-08T05:36:14.294Z,19.40
2019-06-08T05:38:43.449Z,19.40
2019-06-08T05:41:12.264Z,19.40
2019-06-08T05:43:41.624Z,19.40
2019-06-08T05:46:10.377Z,19.40
2019-06-08T05:48:39.745Z,19.40
2019-06-08T05:51:08.588Z,19.50
2019-06-08T05:53:37.265Z,19.40
2019-06-08T05:56:05.959Z,19.50
2019-06-08T05:58:34.629Z,19.50
2019-06-08T06:01:03.305Z,19.60
2019-06-08T06:03:32.077Z,19.60
2019-06-08T06:06:00.753Z,19.70
2019-06-08T06:08:29.633Z,19.70
2019-06-08T06:10:58.346Z,19.70
2019-06-08T06:13:27.021Z,19.80
2019-06-08T06:15:55.761Z,19.80
2019-06-08T06:18:24.470Z,19.90
2019-06-08T06:20:53.115Z,19.80
2019-06-08T06:23:21.852Z,19.90
2019-06-08T06:25:51.750Z,19.80
2019-06-08T06:28:20.591Z,19.80
2019-06-08T06:30:50.373Z,19.70
2019-06-08T06:33:19.051Z,19.60
2019-06-08T06:35:47.876Z,19.70
2019-06-08T06:38:16.561Z,19.80
2019-06-08T06:40:45.921Z,19.80
2019-06-08T06:43:14.737Z,19.80
2019-06-08T06:45:44.087Z,19.90
2019-06-08T06:48:13.146Z,19.90
2019-06-08T06:50:42.253Z,19.80
2019-06-08T06:53:10.983Z,19.70
2019-06-08T06:55:39.677Z,19.70
2019-06-08T06:58:08.358Z,19.70
2019-06-08T07:00:37.096Z,19.70
2019-06-08T07:03:05.766Z,19.70
2019-06-08T07:05:34.440Z,19.70
2019-06-08T07:08:03.165Z,19.70
2019-06-08T07:10:32.005Z,19.70
2019-06-08T07:13:00.669Z,19.70
2019-06-08T07:15:29.627Z,19.70
2019-06-08T07:17:58.568Z,19.80
2019-06-08T07:20:27.514Z,19.80
2019-06-08T07:22:56.236Z,19.80
2019-06-08T07:25:24.923Z,19.90
2019-06-08T07:27:55.117Z,19.90
2019-06-08T07:30:24.056Z,19.90
2019-06-08T07:32:53.054Z,19.90
2019-06-08T07:35:21.746Z,19.90
2019-06-08T07:37:51.881Z,20.00
2019-06-08T07:40:20.836Z,20.00
2019-06-08T07:42:50.996Z,20.20
2019-06-08T07:45:19.907Z,20.30
2019-06-08T07:47:49.857Z,20.50
2019-06-08T07:50:18.639Z,20.70
2019-06-08T07:52:47.981Z,20.80
2019-06-08T07:55:17.688Z,20.80
2019-06-08T07:57:48.595Z,20.70
2019-06-08T08:00:16.706Z,20.80
2019-06-08T08:02:45.384Z,20.80
2019-06-08T08:05:14.879Z,20.80
2019-06-08T08:07:44.261Z,20.80
2019-06-08T08:10:13.198Z,20.80
2019-06-08T08:12:42.061Z,20.80
2019-06-08T08:15:11.441Z,20.80
2019-06-08T08:17:40.172Z,20.70
2019-06-08T08:20:08.843Z,20.70
2019-06-08T08:22:38.154Z,20.70
2019-06-08T08:25:10.687Z,20.70
2019-06-08T08:27:39.342Z,20.70
2019-06-08T08:30:08.422Z,20.70
2019-06-08T08:32:38.065Z,20.70
2019-06-08T08:35:08.777Z,20.80
2019-06-08T08:37:38.153Z,20.90
2019-06-08T08:40:07.876Z,20.90
2019-06-08T08:42:38.631Z,21.00
2019-06-08T08:45:08.682Z,21.10
2019-06-08T08:47:38.689Z,21.10
2019-06-08T08:50:08.692Z,21.10
2019-06-08T08:52:40.491Z,21.10
2019-06-08T08:55:08.262Z,21.10
2019-06-08T08:57:38.689Z,20.90
2019-06-08T09:00:08.613Z,20.90
2019-06-08T09:02:37.579Z,20.80
2019-06-08T09:05:08.339Z,20.80
2019-06-08T09:07:38.514Z,20.70
2019-06-08T09:10:08.566Z,20.60
2019-06-08T09:12:37.750Z,20.50
2019-06-08T09:15:08.538Z,20.60
2019-06-08T09:17:38.772Z,20.50
2019-06-08T09:20:11.015Z,20.50
2019-06-08T09:22:52.581Z,20.60
2019-06-08T09:25:08.757Z,20.60
2019-06-08T09:27:38.282Z,20.40
2019-06-08T09:30:08.435Z,20.30
2019-06-08T09:32:38.184Z,20.20
2019-06-08T09:35:09.048Z,20.10
2019-06-08T09:37:37.675Z,20.00
2019-06-08T09:40:06.390Z,19.90
2019-06-08T09:42:35.142Z,19.80
2019-06-08T09:45:08.554Z,19.70
2019-06-08T09:47:38.098Z,19.60
2019-06-08T09:50:09.219Z,19.40
2019-06-08T09:52:40.992Z,19.40
2019-06-08T09:55:09.230Z,19.40
2019-06-08T09:57:38.548Z,19.50
2019-06-08T10:00:15.306Z,19.40
2019-06-08T10:02:38.335Z,19.40
2019-06-08T10:05:06.996Z,19.30
2019-06-08T10:07:38.530Z,19.20
2019-06-08T10:10:09.014Z,19.10
2019-06-08T10:12:37.719Z,19.10
2019-06-08T10:15:08.164Z,19.00
2019-06-08T10:17:37.751Z,18.90
2019-06-08T10:20:09.606Z,18.90
2019-06-08T10:22:36.966Z,18.80
2019-06-08T10:25:11.026Z,18.70
2019-06-08T10:27:38.983Z,18.60
2019-06-08T10:30:10.011Z,18.60
2019-06-08T10:32:38.391Z,18.50
2019-06-08T10:35:10.463Z,18.50
2019-06-08T10:37:38.975Z,18.50
2019-06-08T10:40:07.869Z,18.40
2019-06-08T10:42:39.873Z,18.40
2019-06-08T10:45:10.361Z,18.30
2019-06-08T10:47:38.014Z,18.30
2019-06-08T10:50:12.775Z,18.30
2019-06-08T10:52:39.103Z,18.30
2019-06-08T10:55:11.609Z,18.40
2019-06-08T10:57:39.239Z,18.50
2019-06-08T11:00:20.120Z,18.50
2019-06-08T11:02:41.983Z,18.50
2019-06-08T11:05:13.869Z,18.50
2019-06-08T11:07:41.005Z,18.50
2019-06-08T11:10:12.234Z,18.30
2019-06-08T11:12:40.597Z,18.30
2019-06-08T11:15:11.706Z,18.30
2019-06-08T11:17:39.607Z,18.10
2019-06-08T11:20:11.812Z,18.00
2019-06-08T11:22:38.715Z,18.10
2019-06-08T11:25:15.161Z,18.10
2019-06-08T11:27:38.779Z,18.10
2019-06-08T11:30:17.955Z,18.00
2019-06-08T11:32:38.463Z,18.10
2019-06-08T11:35:10.739Z,18.30
2019-06-08T11:37:38.709Z,18.60
2019-06-08T11:40:10.993Z,18.70
2019-06-08T11:42:38.823Z,18.60
2019-06-08T11:45:12.717Z,18.60
2019-06-08T11:47:40.828Z,18.60
2019-06-08T11:50:12.947Z,18.60
2019-06-08T11:52:39.972Z,18.70
2019-06-08T11:55:11.245Z,18.80
2019-06-08T11:57:40.397Z,19.00
2019-06-08T12:00:23.507Z,19.00
2019-06-08T12:02:41.377Z,18.90
2019-06-08T12:05:12.422Z,19.00
2019-06-08T12:07:40.660Z,19.00
2019-06-08T12:10:11.342Z,19.10
2019-06-08T12:12:39.668Z,19.10
2019-06-08T12:15:11.291Z,19.10
2019-06-08T12:17:38.730Z,18.90
2019-06-08T12:20:08.627Z,19.00
2019-06-08T12:22:40.112Z,19.10
2019-06-08T12:25:08.264Z,19.20
2019-06-08T12:27:40.203Z,19.40
2019-06-08T12:30:12.108Z,19.50
2019-06-08T12:32:37.854Z,19.50
2019-06-08T12:35:08.154Z,19.40
2019-06-08T12:37:38.733Z,19.50
2019-06-08T12:40:10.198Z,19.60
2019-06-08T12:42:38.256Z,19.60
2019-06-08T12:45:07.307Z,19.80
2019-06-08T12:47:38.122Z,20.10
2019-06-08T12:50:09.013Z,20.50
2019-06-08T12:52:39.298Z,20.80
2019-06-08T12:55:12.684Z,21.00
2019-06-08T12:57:38.302Z,21.10
2019-06-08T13:00:08.494Z,21.00
2019-06-08T13:02:38.406Z,21.20
2019-06-08T13:05:10.647Z,21.40
2019-06-08T13:07:38.621Z,21.50
2019-06-08T13:10:08.708Z,21.40
2019-06-08T13:12:40.711Z,21.30
2019-06-08T13:15:09.652Z,21.40
2019-06-08T13:17:38.842Z,21.50
2019-06-08T13:20:10.579Z,21.50
2019-06-08T13:22:39.430Z,21.70
2019-06-08T13:25:21.155Z,21.90
2019-06-08T13:27:38.422Z,21.90
2019-06-08T13:30:07.583Z,21.90
2019-06-08T13:32:38.319Z,21.90
2019-06-08T13:35:08.233Z,22.10
2019-06-08T13:37:39.044Z,22.20
2019-06-08T13:40:08.227Z,22.30
2019-06-08T13:42:38.290Z,22.40
2019-06-08T13:45:09.228Z,22.40
2019-06-08T13:47:41.074Z,22.40
2019-06-08T13:50:10.798Z,22.50
2019-06-08T13:52:38.886Z,22.60
2019-06-08T13:55:08.522Z,22.40
2019-06-08T13:57:37.907Z,22.30
2019-06-08T14:00:08.841Z,22.30
2019-06-08T14:02:39.670Z,22.10
2019-06-08T14:05:08.269Z,22.20
2019-06-08T14:07:38.054Z,22.40
2019-06-08T14:10:07.850Z,22.40
2019-06-08T14:12:38.488Z,22.40
2019-06-08T14:15:08.556Z,22.40
2019-06-08T14:17:37.969Z,22.50
2019-06-08T14:20:08.035Z,22.80
2019-06-08T14:22:38.847Z,23.10
2019-06-08T14:25:10.539Z,23.50
2019-06-08T14:27:37.755Z,23.60
2019-06-08T14:30:09.352Z,23.80
2019-06-08T14:32:39.546Z,23.90
2019-06-08T14:35:08.864Z,24.00
2019-06-08T14:37:39.356Z,24.30
2019-06-08T14:40:10.043Z,24.70
2019-06-08T14:42:38.745Z,24.80
2019-06-08T14:45:10.567Z,25.10
2019-06-08T14:47:37.909Z,25.10
2019-06-08T14:50:08.065Z,25.20
2019-06-08T14:52:38.079Z,25.30
2019-06-08T14:55:07.984Z,25.60
2019-06-08T14:57:37.945Z,25.90
2019-06-08T15:00:09.659Z,25.70
2019-06-08T15:02:38.110Z,25.30
2019-06-08T15:05:07.832Z,24.70
2019-06-08T15:07:38.775Z,24.30
2019-06-08T15:10:09.783Z,24.00
2019-06-08T15:12:38.376Z,23.80
2019-06-08T15:15:08.308Z,24.20
2019-06-08T15:17:37.928Z,24.60
2019-06-08T15:20:08.838Z,25.10
2019-06-08T15:22:38.919Z,25.50
2019-06-08T15:25:11.019Z,25.80
2019-06-08T15:27:38.906Z,25.90
2019-06-08T15:30:07.850Z,25.70
2019-06-08T15:32:38.674Z,25.20
2019-06-08T15:35:08.152Z,25.20
2019-06-08T15:37:58.524Z,25.40
2019-06-08T15:40:28.078Z,25.40
2019-06-08T15:42:58.540Z,25.50
2019-06-08T15:45:30.708Z,25.40
2019-06-08T15:47:58.693Z,25.30
2019-06-08T15:50:28.466Z,25.30
2019-06-08T15:52:59.767Z,25.30
2019-06-08T15:55:31.397Z,25.20
2019-06-08T15:57:58.480Z,25.20
2019-06-08T16:00:29.366Z,25.00
2019-06-08T16:02:58.303Z,25.00
2019-06-08T16:05:27.707Z,25.10
2019-06-08T16:07:56.670Z,25.20
2019-06-08T16:10:26.328Z,25.20
2019-06-08T16:12:55.116Z,25.20
2019-06-08T16:15:24.876Z,25.20
2019-06-08T16:17:53.672Z,25.20
2019-06-08T16:20:22.417Z,25.30
2019-06-08T16:22:51.097Z,25.30
2019-06-08T16:25:21.980Z,25.20
2019-06-08T16:27:50.996Z,25.20
2019-06-08T16:30:19.701Z,25.30
2019-06-08T16:32:48.457Z,25.40
2019-06-08T16:35:17.207Z,25.40
2019-06-08T16:37:45.888Z,25.40
2019-06-08T16:40:14.588Z,25.40
2019-06-08T16:42:43.331Z,25.50
2019-06-08T16:45:12.127Z,25.60
2019-06-08T16:47:43.343Z,25.70
2019-06-08T16:50:23.353Z,25.70
2019-06-08T16:52:41.474Z,25.60
2019-06-08T16:55:10.148Z,25.50
2019-06-08T16:57:41.070Z,25.50
2019-06-08T17:02:39.926Z,25.30
2019-06-08T17:05:08.668Z,25.30
2019-06-08T17:07:37.761Z,25.20
2019-06-08T17:10:07.246Z,25.20
2019-06-08T17:12:37.012Z,25.20
2019-06-08T17:15:06.405Z,25.20
2019-06-08T17:17:36.368Z,25.30
2019-06-08T17:20:07.652Z,25.30
2019-06-08T17:22:36.786Z,25.30
2019-06-08T17:25:08.489Z,25.20
2019-06-08T17:27:37.258Z,25.20
2019-06-08T17:30:09.119Z,25.30
2019-06-08T17:32:38.454Z,25.40
2019-06-08T17:35:08.011Z,25.20
2019-06-08T17:37:37.880Z,25.10
2019-06-08T17:40:06.798Z,25.10
2019-06-08T17:42:35.549Z,25.30
2019-06-08T17:45:08.228Z,25.10
2019-06-08T17:47:36.900Z,25.10
2019-06-08T17:50:08.588Z,25.00
2019-06-08T17:52:37.282Z,25.00
2019-06-08T17:55:07.697Z,24.90
2019-06-08T17:57:44.762Z,24.80
2019-06-08T18:00:08.809Z,24.80
2019-06-08T18:02:40.274Z,24.70
2019-06-08T18:05:08.642Z,24.70
2019-06-08T18:07:39.005Z,24.70
2019-06-08T18:10:07.671Z,24.60
2019-06-08T18:12:39.222Z,24.60
2019-06-08T18:15:07.658Z,24.60
2019-06-08T18:17:39.152Z,24.60
2019-06-08T18:20:08.665Z,24.50
2019-06-08T18:22:40.994Z,24.40
2019-06-08T18:25:08.401Z,24.20
2019-06-08T18:27:39.176Z,24.30
2019-06-08T18:30:11.476Z,24.20
2019-06-08T18:32:40.542Z,24.10
2019-06-08T18:35:08.838Z,24.00
2019-06-08T18:37:39.352Z,24.10
2019-06-08T18:40:07.964Z,24.10
2019-06-08T18:42:39.599Z,24.00
2019-06-08T18:45:07.424Z,23.90
2019-06-08T18:47:38.808Z,23.90
2019-06-08T18:50:08.782Z,23.80
2019-06-08T18:52:41.444Z,23.70
2019-06-08T18:55:08.439Z,23.60
2019-06-08T18:57:38.468Z,23.60
2019-06-08T19:00:09.163Z,23.50
2019-06-08T19:02:41.174Z,23.70
2019-06-08T19:05:08.434Z,23.80
2019-06-08T19:07:37.285Z,23.80
2019-06-08T19:10:07.622Z,23.70
2019-06-08T19:12:39.593Z,23.50
2019-06-08T19:15:10.777Z,23.50
2019-06-08T19:17:44.755Z,23.40
2019-06-08T19:20:07.477Z,23.50
2019-06-08T19:22:38.451Z,23.40
2019-06-08T19:25:07.798Z,23.30
2019-06-08T19:27:40.637Z,23.20
2019-06-08T19:30:07.005Z,23.10
2019-06-08T19:32:37.705Z,23.00
2019-06-08T19:35:07.335Z,22.80
2019-06-08T19:37:36.261Z,22.90
2019-06-08T19:40:07.567Z,22.80
2019-06-08T19:42:44.757Z,22.70
2019-06-08T19:45:08.804Z,22.70
2019-06-08T19:47:38.301Z,22.60
2019-06-08T19:50:07.811Z,22.50
2019-06-08T19:52:40.022Z,22.50
2019-06-08T19:55:08.041Z,22.40
2019-06-08T19:57:36.849Z,22.10
2019-06-08T20:00:07.510Z,22.10
2019-06-08T20:02:36.241Z,22.20
2019-06-08T20:05:07.658Z,22.10
2019-06-08T20:07:37.905Z,22.20
2019-06-08T20:10:07.898Z,22.10
2019-06-08T20:12:37.300Z,22.00
2019-06-08T20:15:08.500Z,21.80
2019-06-08T20:17:37.311Z,21.80
2019-06-08T20:20:10.583Z,21.70
2019-06-08T20:22:37.980Z,21.60
2019-06-08T20:25:10.332Z,21.50
2019-06-08T20:27:37.319Z,21.40
2019-06-08T20:30:09.563Z,21.40
2019-06-08T20:32:37.836Z,21.40
2019-06-08T20:35:08.111Z,21.10
2019-06-08T20:37:37.690Z,21.20
2019-06-08T20:40:13.573Z,21.10
2019-06-08T20:42:37.810Z,21.00
2019-06-08T20:45:08.155Z,20.80
2019-06-08T20:47:39.172Z,20.40
2019-06-08T20:52:37.821Z,20.60
2019-06-08T20:55:07.909Z,20.70
2019-06-08T20:57:36.715Z,20.30
2019-06-08T21:00:11.610Z,20.50
2019-06-08T21:02:39.397Z,20.50
2019-06-08T21:05:08.118Z,20.40
2019-06-08T21:07:36.787Z,20.20
2019-06-08T21:10:08.322Z,19.90
2019-06-08T21:12:37.995Z,20.20
2019-06-08T21:15:07.111Z,20.20
2019-06-08T21:17:38.241Z,19.90
2019-06-08T21:20:08.545Z,19.80
2019-06-08T21:22:36.710Z,19.80
2019-06-08T21:25:08.728Z,20.10
2019-06-08T21:27:38.457Z,20.50
2019-06-08T21:32:37.559Z,20.00
2019-06-08T21:37:37.701Z,19.50
2019-06-08T21:40:08.563Z,19.70
2019-06-08T21:42:37.458Z,19.70
2019-06-08T21:45:09.440Z,19.60
2019-06-08T21:47:37.837Z,19.60
2019-06-08T21:50:08.025Z,19.40
2019-06-08T21:52:37.005Z,19.70
2019-06-08T21:55:07.270Z,19.30
2019-06-08T21:57:37.097Z,19.50
2019-06-08T22:00:26.985Z,19.70
2019-06-08T22:02:38.905Z,19.30
2019-06-08T22:05:08.213Z,19.50
2019-06-08T22:07:37.774Z,19.00
2019-06-08T22:10:07.585Z,19.60
2019-06-08T22:12:39.997Z,19.20
2019-06-08T22:15:07.491Z,19.40
2019-06-08T22:17:38.296Z,19.20
2019-06-08T22:20:07.973Z,19.10
2019-06-08T22:22:37.790Z,19.10
2019-06-08T22:25:08.193Z,19.10
2019-06-08T22:27:38.159Z,19.00
2019-06-08T22:30:13.955Z,18.90
2019-06-08T22:32:38.453Z,18.70
2019-06-08T22:35:08.201Z,19.00
2019-06-08T22:37:38.005Z,18.70
2019-06-08T22:40:08.223Z,19.00
2019-06-08T22:42:37.600Z,18.60
2019-06-08T22:45:09.392Z,18.70
2019-06-08T22:47:38.704Z,18.70
2019-06-08T22:50:08.050Z,18.90
2019-06-08T22:52:37.578Z,18.60
2019-06-08T22:55:10.229Z,19.00
2019-06-08T22:57:37.739Z,18.50
2019-06-08T23:00:14.582Z,18.70
2019-06-08T23:02:38.392Z,18.80
2019-06-08T23:05:08.929Z,18.60
2019-06-08T23:07:37.879Z,18.40
2019-06-08T23:10:08.895Z,18.40
2019-06-08T23:12:38.354Z,18.30
2019-06-08T23:15:08.166Z,18.30
2019-06-08T23:20:08.609Z,18.20
2019-06-08T23:22:38.438Z,17.90
2019-06-08T23:25:09.380Z,18.30
2019-06-08T23:27:38.195Z,17.80
2019-06-08T23:30:10.061Z,18.10
2019-06-08T23:32:38.902Z,17.70
2019-06-08T23:35:09.512Z,17.80
2019-06-08T23:40:07.610Z,18.10
2019-06-08T23:42:38.342Z,17.40
2019-06-08T23:45:10.374Z,17.60
2019-06-08T23:47:38.520Z,17.70
2019-06-08T23:50:10.016Z,17.80
2019-06-08T23:52:38.266Z,17.40
2019-06-08T23:55:10.544Z,17.50
2019-06-08T23:57:38.152Z,18.00
